createdAt,value
2023-05-23T00:01:04.196Z,21.00
2023-05-23T00:03:35.875Z,21.00
2023-05-23T00:06:05.438Z,21.00
2023-05-23T00:08:33.556Z,21.00
2023-05-23T00:11:03.449Z,21.00
2023-05-23T00:13:33.766Z,21.00
2023-05-23T00:16:03.876Z,20.97
2023-05-23T00:18:32.465Z,20.90
2023-05-23T00:21:00.846Z,20.89
2023-05-23T00:23:29.827Z,20.76
2023-05-23T00:25:58.690Z,20.91
2023-05-23T00:28:28.788Z,20.89
2023-05-23T00:30:57.271Z,20.92
2023-05-23T00:33:27.393Z,20.87
2023-05-23T00:35:55.849Z,20.88
2023-05-23T00:38:24.074Z,20.88
2023-05-23T00:40:52.161Z,20.81
2023-05-23T00:43:21.515Z,20.95
2023-05-23T00:45:51.519Z,20.82
2023-05-23T00:48:19.734Z,20.85
2023-05-23T00:50:48.404Z,20.67
2023-05-23T00:53:19.045Z,20.67
2023-05-23T00:55:47.542Z,20.71
2023-05-23T00:58:17.858Z,20.70
2023-05-23T01:00:46.541Z,20.66
2023-05-23T01:03:18.526Z,20.84
2023-05-23T01:05:47.613Z,20.86
2023-05-23T01:08:16.917Z,20.83
2023-05-23T01:10:45.047Z,20.74
2023-05-23T01:13:23.672Z,20.73
2023-05-23T01:15:57.947Z,20.69
2023-05-23T01:18:35.369Z,20.79
2023-05-23T01:21:08.755Z,20.94
2023-05-23T01:24:07.857Z,21.05
2023-05-23T01:26:49.440Z,21.06
2023-05-23T01:29:24.993Z,21.04
2023-05-23T01:31:55.979Z,20.86
2023-05-23T01:34:24.171Z,20.79
2023-05-23T01:36:56.769Z,20.75
2023-05-23T01:39:25.446Z,20.83
2023-05-23T01:41:55.051Z,20.90
2023-05-23T01:44:25.089Z,20.97
2023-05-23T01:46:53.307Z,20.92
2023-05-23T01:49:23.417Z,20.83
2023-05-23T01:51:52.211Z,20.84
2023-05-23T01:54:20.953Z,20.80
2023-05-23T01:56:50.009Z,20.80
2023-05-23T01:59:18.369Z,20.63
2023-05-23T02:01:48.377Z,20.60
2023-05-23T02:04:16.618Z,20.57
2023-05-23T02:06:44.879Z,20.61
2023-05-23T02:09:13.337Z,20.57
2023-05-23T02:11:41.838Z,20.58
2023-05-23T02:14:15.246Z,20.53
2023-05-23T02:16:43.723Z,20.43
2023-05-23T02:19:13.735Z,20.49
2023-05-23T02:21:42.641Z,20.62
2023-05-23T02:24:11.489Z,20.58
2023-05-23T02:26:39.623Z,20.50
2023-05-23T02:29:07.960Z,20.41
2023-05-23T02:31:36.203Z,20.41
2023-05-23T02:34:04.665Z,20.45
2023-05-23T02:36:34.668Z,20.41
2023-05-23T02:39:03.174Z,20.33
2023-05-23T02:41:31.305Z,20.32
2023-05-23T02:43:59.684Z,20.25
2023-05-23T02:46:28.036Z,20.20
2023-05-23T02:48:56.300Z,20.16
2023-05-23T02:51:24.609Z,20.15
2023-05-23T02:53:54.446Z,20.08
2023-05-23T02:56:23.202Z,19.93
2023-05-23T02:58:53.040Z,20.08
2023-05-23T03:01:21.618Z,20.10
2023-05-23T03:03:49.857Z,20.08
2023-05-23T03:06:18.287Z,20.01
2023-05-23T03:08:46.895Z,19.98
2023-05-23T03:11:16.812Z,20.08
2023-05-23T03:13:45.459Z,19.89
2023-05-23T03:16:13.793Z,19.99
2023-05-23T03:18:42.785Z,19.96
2023-05-23T03:21:11.095Z,19.83
2023-05-23T03:23:39.450Z,19.82
2023-05-23T03:26:08.034Z,19.82
2023-05-23T03:28:37.988Z,19.80
2023-05-23T03:31:06.536Z,19.75
2023-05-23T03:33:34.896Z,19.77
2023-05-23T03:36:03.436Z,19.71
2023-05-23T03:38:31.954Z,19.68
2023-05-23T03:41:00.059Z,19.76
2023-05-23T03:43:28.870Z,19.75
2023-05-23T03:45:59.003Z,19.71
2023-05-23T03:48:27.589Z,19.75
2023-05-23T03:50:55.877Z,19.72
2023-05-23T03:53:24.259Z,19.72
2023-05-23T03:55:54.071Z,19.70
2023-05-23T03:58:22.369Z,19.75
2023-05-23T04:00:50.620Z,19.78
2023-05-23T04:03:21.525Z,19.72
2023-05-23T04:05:50.198Z,19.71
2023-05-23T04:08:22.173Z,19.65
2023-05-23T04:10:50.686Z,19.72
2023-05-23T04:13:23.455Z,19.76
2023-05-23T04:15:52.273Z,19.76
2023-05-23T04:18:22.206Z,19.80
2023-05-23T04:20:50.858Z,19.85
2023-05-23T04:23:19.552Z,19.87
2023-05-23T04:25:48.654Z,19.77
2023-05-23T04:28:17.729Z,19.99
2023-05-23T04:30:46.032Z,20.12
2023-05-23T04:33:14.457Z,20.07
2023-05-23T04:35:44.171Z,20.11
2023-05-23T04:38:13.756Z,20.15
2023-05-23T04:40:42.425Z,20.24
2023-05-23T04:43:14.540Z,20.34
2023-05-23T04:45:44.195Z,20.40
2023-05-23T04:48:13.222Z,20.35
2023-05-23T04:50:42.969Z,20.50
2023-05-23T04:53:13.020Z,20.54
2023-05-23T04:55:41.906Z,20.55
2023-05-23T04:58:10.657Z,20.64
2023-05-23T05:00:39.100Z,20.56
2023-05-23T05:03:10.012Z,20.53
2023-05-23T05:05:38.326Z,20.56
2023-05-23T05:08:06.734Z,20.61
2023-05-23T05:10:36.211Z,20.42
2023-05-23T05:13:04.511Z,20.23
2023-05-23T05:15:32.996Z,20.07
2023-05-23T05:18:01.142Z,20.28
2023-05-23T05:20:29.544Z,20.38
2023-05-23T05:22:58.862Z,20.51
2023-05-23T05:25:27.574Z,20.51
2023-05-23T05:27:57.153Z,20.60
2023-05-23T05:30:25.562Z,20.62
2023-05-23T05:32:54.081Z,20.50
2023-05-23T05:35:22.888Z,20.25
2023-05-23T05:37:51.616Z,20.32
2023-05-23T05:40:20.065Z,20.45
2023-05-23T05:42:48.365Z,20.37
2023-05-23T05:45:18.371Z,20.57
2023-05-23T05:47:47.209Z,20.48
2023-05-23T05:50:15.479Z,20.64
2023-05-23T05:52:43.973Z,20.75
2023-05-23T05:55:12.954Z,20.38
2023-05-23T05:57:41.609Z,20.28
2023-05-23T06:00:15.641Z,20.31
2023-05-23T06:02:47.353Z,20.28
2023-05-23T06:05:16.793Z,20.34
2023-05-23T06:07:44.955Z,20.17
2023-05-23T06:10:14.019Z,20.12
2023-05-23T06:12:42.450Z,19.93
2023-05-23T06:15:11.398Z,20.17
2023-05-23T06:17:39.529Z,20.20
2023-05-23T06:20:11.071Z,20.20
2023-05-23T06:22:39.325Z,19.99
2023-05-23T06:25:08.967Z,20.12
2023-05-23T06:27:38.560Z,20.06
2023-05-23T06:30:08.165Z,19.99
2023-05-23T06:32:37.050Z,19.84
2023-05-23T06:35:06.039Z,20.14
2023-05-23T06:37:36.702Z,20.03
2023-05-23T06:40:05.676Z,19.86
2023-05-23T06:42:34.009Z,20.17
2023-05-23T06:45:05.814Z,20.30
2023-05-23T06:47:34.068Z,20.29
2023-05-23T06:50:06.038Z,19.98
2023-05-23T06:52:35.753Z,20.31
2023-05-23T06:55:03.876Z,20.42
2023-05-23T06:57:32.465Z,20.12
2023-05-23T07:00:03.610Z,20.34
2023-05-23T07:02:32.262Z,20.27
2023-05-23T07:05:01.194Z,20.37
2023-05-23T07:07:29.742Z,20.46
2023-05-23T07:09:59.654Z,20.56
2023-05-23T07:12:28.237Z,20.51
2023-05-23T07:14:56.467Z,20.38
2023-05-23T07:17:24.698Z,20.39
2023-05-23T07:19:53.196Z,20.46
2023-05-23T07:22:21.688Z,20.17
2023-05-23T07:24:49.788Z,20.38
2023-05-23T07:27:19.640Z,20.55
2023-05-23T07:29:47.916Z,20.58
2023-05-23T07:32:16.178Z,20.63
2023-05-23T07:34:44.676Z,20.42
2023-05-23T07:37:13.085Z,20.63
2023-05-23T07:39:41.690Z,20.51
2023-05-23T07:42:10.387Z,20.73
2023-05-23T07:44:39.955Z,20.82
2023-05-23T07:47:08.258Z,20.87
2023-05-23T07:49:36.655Z,20.97
2023-05-23T07:52:05.007Z,20.94
2023-05-23T07:54:33.544Z,20.77
2023-05-23T07:57:02.497Z,20.76
2023-05-23T07:59:31.527Z,20.77
2023-05-23T08:02:01.298Z,20.77
2023-05-23T08:04:29.916Z,20.91
2023-05-23T08:07:05.106Z,20.98
2023-05-23T08:09:34.743Z,21.03
2023-05-23T08:12:03.337Z,21.17
2023-05-23T08:14:49.120Z,21.08
2023-05-23T08:17:21.110Z,20.89
2023-05-23T08:19:49.368Z,20.58
2023-05-23T08:22:17.466Z,20.57
2023-05-23T08:24:46.393Z,20.81
2023-05-23T08:27:14.515Z,20.89
2023-05-23T08:29:44.374Z,20.56
2023-05-23T08:32:12.822Z,20.86
2023-05-23T08:34:43.176Z,20.98
2023-05-23T08:37:11.339Z,20.74
2023-05-23T08:39:39.817Z,20.90
2023-05-23T08:42:08.373Z,20.97
2023-05-23T08:44:36.847Z,20.79
2023-05-23T08:47:06.978Z,20.79
2023-05-23T08:49:35.910Z,20.80
2023-05-23T08:52:06.392Z,20.94
2023-05-23T08:54:36.111Z,20.76
2023-05-23T08:57:04.947Z,20.72
2023-05-23T08:59:35.086Z,20.88
2023-05-23T09:02:05.353Z,20.66
2023-05-23T09:04:33.569Z,20.64
2023-05-23T09:07:02.613Z,20.73
2023-05-23T09:09:35.024Z,20.56
2023-05-23T09:12:03.524Z,20.75
2023-05-23T09:14:32.218Z,20.75
2023-05-23T09:17:04.709Z,20.89
2023-05-23T09:19:33.660Z,20.91
2023-05-23T09:22:03.788Z,20.86
2023-05-23T09:24:42.357Z,20.62
2023-05-23T09:27:10.606Z,20.75
2023-05-23T09:29:40.676Z,21.17
2023-05-23T09:32:16.129Z,21.17
2023-05-23T09:34:44.605Z,21.31
2023-05-23T09:37:19.481Z,21.44
2023-05-23T09:39:50.032Z,21.30
2023-05-23T09:42:23.240Z,21.10
2023-05-23T09:44:51.850Z,21.14
2023-05-23T09:47:20.459Z,21.33
2023-05-23T09:49:51.707Z,20.91
2023-05-23T09:52:21.343Z,21.15
2023-05-23T09:54:52.947Z,21.05
2023-05-23T09:57:24.227Z,21.13
2023-05-23T09:59:55.538Z,21.34
2023-05-23T10:02:54.830Z,21.24
2023-05-23T10:05:34.843Z,20.82
2023-05-23T10:08:07.542Z,21.18
2023-05-23T10:10:57.582Z,21.40
2023-05-23T10:13:27.847Z,21.38
2023-05-23T10:16:01.419Z,21.37
2023-05-23T10:18:34.216Z,21.24
2023-05-23T10:21:08.854Z,20.69
2023-05-23T10:23:38.563Z,20.65
2023-05-23T10:26:09.329Z,20.81
2023-05-23T10:28:38.690Z,20.79
2023-05-23T10:31:07.109Z,20.46
2023-05-23T10:33:42.291Z,20.03
2023-05-23T10:36:16.457Z,19.97
2023-05-23T10:38:53.553Z,20.41
2023-05-23T10:41:28.586Z,20.41
2023-05-23T10:44:03.884Z,20.50
2023-05-23T10:46:54.784Z,20.21
2023-05-23T10:49:23.297Z,20.15
2023-05-23T10:51:54.470Z,20.30
2023-05-23T10:54:23.068Z,20.28
2023-05-23T10:57:06.837Z,19.94
2023-05-23T10:59:35.520Z,19.68
2023-05-23T11:02:05.409Z,19.52
2023-05-23T11:04:34.975Z,19.61
2023-05-23T11:07:03.583Z,19.71
2023-05-23T11:09:32.133Z,19.70
2023-05-23T11:12:06.106Z,19.46
2023-05-23T11:14:55.690Z,19.51
2023-05-23T11:17:35.106Z,19.48
2023-05-23T11:20:07.676Z,19.55
2023-05-23T11:22:38.118Z,19.58
2023-05-23T11:25:10.256Z,19.80
2023-05-23T11:27:42.223Z,19.51
2023-05-23T11:30:14.395Z,19.51
2023-05-23T11:32:46.896Z,19.43
2023-05-23T11:35:15.374Z,19.34
2023-05-23T11:37:46.072Z,19.46
2023-05-23T11:40:28.835Z,19.56
2023-05-23T11:43:00.758Z,19.52
2023-05-23T11:45:31.778Z,19.41
2023-05-23T11:48:00.860Z,19.29
2023-05-23T11:50:29.466Z,19.27
2023-05-23T11:52:58.113Z,19.48
2023-05-23T11:55:26.899Z,19.57
2023-05-23T11:57:59.627Z,19.64
2023-05-23T12:00:31.819Z,19.62
2023-05-23T12:03:00.053Z,19.81
2023-05-23T12:05:30.814Z,19.85
2023-05-23T12:08:01.791Z,19.70
2023-05-23T12:10:33.053Z,19.66
2023-05-23T12:13:02.798Z,19.69
2023-05-23T12:15:32.319Z,19.75
2023-05-23T12:18:01.442Z,19.69
2023-05-23T12:20:32.437Z,19.73
2023-05-23T12:23:03.101Z,19.67
2023-05-23T12:25:31.452Z,19.63
2023-05-23T12:28:00.885Z,19.87
2023-05-23T12:30:43.169Z,19.77
2023-05-23T12:33:12.833Z,19.78
2023-05-23T12:35:45.747Z,19.79
2023-05-23T12:38:18.236Z,19.87
2023-05-23T12:40:46.795Z,19.75
2023-05-23T12:43:16.993Z,19.81
2023-05-23T12:45:46.674Z,19.61
2023-05-23T12:48:14.979Z,19.69
2023-05-23T12:50:43.163Z,19.69
2023-05-23T12:53:11.672Z,19.58
2023-05-23T12:55:40.642Z,19.11
2023-05-23T12:58:09.340Z,19.10
2023-05-23T13:00:37.905Z,19.04
2023-05-23T13:03:07.770Z,19.26
2023-05-23T13:05:35.887Z,19.19
2023-05-23T13:08:04.190Z,19.29
2023-05-23T13:10:33.244Z,19.22
2023-05-23T13:13:02.450Z,19.21
2023-05-23T13:15:31.881Z,19.05
2023-05-23T13:18:00.884Z,19.30
2023-05-23T13:20:34.348Z,19.37
2023-05-23T13:23:02.697Z,19.51
2023-05-23T13:25:31.359Z,19.45
2023-05-23T13:28:04.761Z,19.59
2023-05-23T13:30:37.400Z,19.69
2023-05-23T13:33:06.407Z,19.47
2023-05-23T13:35:36.016Z,19.08
2023-05-23T13:38:07.163Z,19.32
2023-05-23T13:40:35.371Z,19.36
2023-05-23T13:43:06.129Z,19.09
2023-05-23T13:45:35.167Z,19.12
2023-05-23T13:48:03.784Z,19.05
2023-05-23T13:50:32.542Z,18.96
2023-05-23T13:53:14.779Z,19.13
2023-05-23T13:55:43.221Z,19.31
2023-05-23T13:58:11.561Z,19.16
2023-05-23T14:00:40.330Z,19.34
2023-05-23T14:03:08.912Z,19.29
2023-05-23T14:05:37.770Z,19.10
2023-05-23T14:08:08.141Z,18.75
2023-05-23T14:10:36.739Z,18.87
2023-05-23T14:13:05.752Z,19.25
2023-05-23T14:15:34.682Z,19.37
2023-05-23T14:18:03.078Z,19.34
2023-05-23T14:20:33.413Z,19.32
2023-05-23T14:23:04.626Z,19.40
2023-05-23T14:25:34.557Z,19.33
2023-05-23T14:28:02.837Z,19.01
2023-05-23T14:30:31.243Z,19.14
2023-05-23T14:33:01.875Z,19.35
2023-05-23T14:35:30.564Z,19.48
2023-05-23T14:37:58.849Z,19.19
2023-05-23T14:40:27.747Z,19.15
2023-05-23T14:42:57.308Z,19.06
2023-05-23T14:45:25.875Z,19.06
2023-05-23T14:47:54.337Z,18.98
2023-05-23T14:50:22.622Z,19.06
2023-05-23T14:52:50.956Z,18.96
2023-05-23T14:55:19.542Z,19.06
2023-05-23T14:57:50.026Z,19.33
2023-05-23T15:00:20.906Z,19.03
2023-05-23T15:02:49.483Z,18.87
2023-05-23T15:05:18.090Z,18.87
2023-05-23T15:07:46.693Z,19.05
2023-05-23T15:10:14.874Z,18.99
2023-05-23T15:12:43.081Z,18.90
2023-05-23T15:15:16.776Z,18.88
2023-05-23T15:17:46.466Z,18.86
2023-05-23T15:20:14.826Z,18.94
2023-05-23T15:22:43.155Z,18.65
2023-05-23T15:25:11.939Z,18.66
2023-05-23T15:27:40.622Z,18.57
2023-05-23T15:30:10.180Z,18.92
2023-05-23T15:32:38.672Z,19.04
2023-05-23T15:35:08.991Z,18.94
2023-05-23T15:37:37.335Z,18.83
2023-05-23T15:40:06.368Z,18.48
2023-05-23T15:42:34.565Z,18.37
2023-05-23T15:45:02.786Z,18.48
2023-05-23T15:47:31.350Z,18.47
2023-05-23T15:50:02.212Z,18.69
2023-05-23T15:52:35.049Z,18.56
2023-05-23T15:55:05.689Z,18.69
2023-05-23T15:57:34.549Z,18.67
2023-05-23T16:00:03.204Z,18.27
2023-05-23T16:02:32.559Z,18.37
2023-05-23T16:05:00.997Z,18.36
2023-05-23T16:07:29.676Z,18.32
2023-05-23T16:09:59.515Z,18.24
2023-05-23T16:12:28.327Z,18.25
2023-05-23T16:14:56.552Z,18.41
2023-05-23T16:17:24.710Z,18.24
2023-05-23T16:19:52.886Z,18.49
2023-05-23T16:22:21.614Z,18.65
2023-05-23T16:24:49.918Z,18.56
2023-05-23T16:27:19.602Z,18.71
2023-05-23T16:29:47.929Z,18.84
2023-05-23T16:32:17.186Z,18.82
2023-05-23T16:34:49.436Z,18.75
2023-05-23T16:37:22.616Z,18.70
2023-05-23T16:39:50.832Z,18.65
2023-05-23T16:42:21.180Z,18.59
2023-05-23T16:44:49.719Z,18.56
2023-05-23T16:47:18.277Z,18.32
2023-05-23T16:49:46.496Z,18.20
2023-05-23T16:52:15.116Z,18.10
2023-05-23T16:54:43.673Z,18.01
2023-05-23T16:57:30.770Z,18.19
2023-05-23T17:00:00.823Z,18.30
2023-05-23T17:02:29.063Z,18.47
2023-05-23T17:04:57.483Z,18.60
2023-05-23T17:07:25.767Z,18.43
2023-05-23T17:09:55.789Z,18.49
2023-05-23T17:12:23.980Z,18.75
2023-05-23T17:14:52.669Z,18.69
2023-05-23T17:17:22.182Z,18.53
2023-05-23T17:19:50.455Z,18.79
2023-05-23T17:22:18.711Z,18.98
2023-05-23T17:24:46.841Z,18.95
2023-05-23T17:27:17.358Z,19.04
2023-05-23T17:29:46.100Z,19.14
2023-05-23T17:32:14.401Z,18.88
2023-05-23T17:34:45.264Z,18.84
2023-05-23T17:37:13.555Z,18.87
2023-05-23T17:39:41.728Z,18.86
2023-05-23T17:42:10.033Z,18.95
2023-05-23T17:44:38.532Z,18.61
2023-05-23T17:47:07.958Z,18.71
2023-05-23T17:49:36.605Z,18.90
2023-05-23T17:52:09.687Z,18.79
2023-05-23T17:54:38.565Z,18.70
2023-05-23T17:57:07.725Z,18.75
2023-05-23T17:59:36.458Z,18.79
2023-05-23T18:02:05.209Z,18.81
2023-05-23T18:04:33.651Z,18.76
2023-05-23T18:07:06.602Z,18.57
2023-05-23T18:09:34.865Z,18.49
2023-05-23T18:12:04.029Z,18.53
2023-05-23T18:14:35.914Z,18.47
2023-05-23T18:17:04.236Z,18.57
2023-05-23T18:19:32.377Z,18.63
2023-05-23T18:22:01.027Z,18.70
2023-05-23T18:24:32.750Z,18.84
2023-05-23T18:27:01.118Z,18.80
2023-05-23T18:29:29.634Z,18.73
2023-05-23T18:31:57.864Z,18.63
2023-05-23T18:34:27.848Z,18.70
2023-05-23T18:36:57.342Z,18.86
2023-05-23T18:39:25.514Z,18.89
2023-05-23T18:41:55.046Z,18.90
2023-05-23T18:44:23.826Z,18.88
2023-05-23T18:46:52.417Z,18.78
2023-05-23T18:49:20.690Z,18.78
2023-05-23T18:51:51.826Z,18.86
2023-05-23T18:54:20.148Z,18.92
2023-05-23T18:56:48.385Z,19.03
2023-05-23T18:59:18.069Z,18.85
2023-05-23T19:01:46.934Z,18.55
2023-05-23T19:04:15.141Z,18.71
2023-05-23T19:06:46.543Z,18.78
2023-05-23T19:09:14.783Z,18.89
2023-05-23T19:11:43.048Z,18.83
2023-05-23T19:14:11.545Z,18.79
2023-05-23T19:16:41.725Z,18.78
2023-05-23T19:19:09.994Z,18.79
2023-05-23T19:21:38.649Z,18.72
2023-05-23T19:24:08.722Z,18.50
2023-05-23T19:26:37.235Z,18.34
2023-05-23T19:29:06.411Z,18.48
2023-05-23T19:31:36.192Z,18.34
2023-05-23T19:34:08.418Z,18.27
2023-05-23T19:36:36.648Z,18.26
2023-05-23T19:39:05.122Z,18.26
2023-05-23T19:41:33.879Z,18.27
2023-05-23T19:44:02.825Z,18.20
2023-05-23T19:46:31.284Z,18.11
2023-05-23T19:48:59.715Z,18.05
2023-05-23T19:51:29.825Z,17.92
2023-05-23T19:53:57.931Z,17.93
2023-05-23T19:56:27.432Z,18.08
2023-05-23T19:58:55.948Z,18.02
2023-05-23T20:01:24.200Z,18.01
2023-05-23T20:03:52.796Z,18.03
2023-05-23T20:06:21.025Z,18.00
2023-05-23T20:08:50.657Z,18.08
2023-05-23T20:11:18.947Z,17.99
2023-05-23T20:13:47.179Z,17.98
2023-05-23T20:16:17.793Z,17.93
2023-05-23T20:18:46.196Z,17.92
2023-05-23T20:21:14.513Z,17.93
2023-05-23T20:23:45.187Z,17.96
2023-05-23T20:26:14.928Z,17.96
2023-05-23T20:28:43.077Z,17.84
2023-05-23T20:31:11.915Z,17.64
2023-05-23T20:33:40.237Z,17.64
2023-05-23T20:36:12.577Z,17.59
2023-05-23T20:38:42.383Z,17.49
2023-05-23T20:41:11.368Z,17.43
2023-05-23T20:43:44.416Z,17.44
2023-05-23T20:46:13.680Z,17.44
2023-05-23T20:48:42.536Z,17.58
2023-05-23T20:51:10.960Z,17.52
2023-05-23T20:53:39.304Z,17.64
2023-05-23T20:56:10.460Z,17.59
2023-05-23T20:58:43.281Z,17.58
2023-05-23T21:01:11.577Z,17.61
2023-05-23T21:03:39.934Z,17.53
2023-05-23T21:06:10.935Z,17.61
2023-05-23T21:08:39.262Z,17.62
2023-05-23T21:11:07.362Z,17.63
2023-05-23T21:13:36.299Z,17.60
2023-05-23T21:16:10.573Z,17.49
2023-05-23T21:18:39.015Z,17.63
2023-05-23T21:21:07.298Z,17.61
2023-05-23T21:23:35.418Z,17.54
2023-05-23T21:26:03.586Z,17.53
2023-05-23T21:28:34.753Z,17.56
2023-05-23T21:31:03.598Z,17.59
2023-05-23T21:33:33.537Z,17.61
2023-05-23T21:36:04.157Z,17.54
2023-05-23T21:38:37.663Z,17.58
2023-05-23T21:41:06.069Z,17.61
2023-05-23T21:43:34.240Z,17.52
2023-05-23T21:46:02.780Z,17.37
2023-05-23T21:48:34.949Z,17.41
2023-05-23T21:51:05.941Z,17.31
2023-05-23T21:53:34.393Z,17.34
2023-05-23T21:56:05.230Z,17.33
2023-05-23T21:58:33.705Z,17.40
2023-05-23T22:01:04.799Z,17.44
2023-05-23T22:03:37.561Z,17.60
2023-05-23T22:06:06.371Z,17.68
2023-05-23T22:08:38.898Z,17.58
2023-05-23T22:11:09.501Z,17.46
2023-05-23T22:13:38.267Z,17.52
2023-05-23T22:16:06.983Z,17.47
2023-05-23T22:18:51.142Z,17.38
2023-05-23T22:21:20.196Z,17.13
2023-05-23T22:23:48.372Z,17.15
2023-05-23T22:26:16.573Z,17.21
2023-05-23T22:28:45.023Z,17.42
2023-05-23T22:31:14.067Z,17.51
2023-05-23T22:33:44.324Z,17.31
2023-05-23T22:36:12.746Z,17.46
2023-05-23T22:38:40.942Z,17.46
2023-05-23T22:41:09.145Z,17.51
2023-05-23T22:43:37.720Z,17.37
2023-05-23T22:46:06.104Z,17.37
2023-05-23T22:48:34.491Z,17.21
2023-05-23T22:51:05.594Z,17.29
2023-05-23T22:53:33.837Z,17.30
2023-05-23T22:56:03.720Z,17.21
2023-05-23T22:58:32.599Z,17.32
2023-05-23T23:01:01.067Z,17.29
2023-05-23T23:03:29.874Z,17.23
2023-05-23T23:05:59.594Z,17.11
2023-05-23T23:08:32.237Z,17.26
2023-05-23T23:11:00.878Z,17.20
2023-05-23T23:13:31.831Z,17.11
2023-05-23T23:16:00.255Z,17.13
2023-05-23T23:18:31.292Z,17.05
2023-05-23T23:20:59.804Z,17.08
2023-05-23T23:23:36.889Z,17.03
2023-05-23T23:26:05.254Z,17.16
2023-05-23T23:28:33.492Z,17.05
2023-05-23T23:31:02.242Z,17.06
2023-05-23T23:33:30.873Z,17.07
2023-05-23T23:36:00.206Z,17.13
2023-05-23T23:38:32.314Z,17.12
2023-05-23T23:41:01.010Z,17.04
2023-05-23T23:43:30.855Z,17.10
2023-05-23T23:45:59.689Z,17.23
2023-05-23T23:48:28.402Z,17.26
2023-05-23T23:50:57.095Z,17.27
2023-05-23T23:53:25.336Z,17.22
2023-05-23T23:55:54.943Z,17.06
2023-05-23T23:58:23.141Z,16.94
